createdAt,value
2023-04-21T00:00:04.312Z,6.73
2023-04-21T00:02:36.013Z,9.13
2023-04-21T00:05:03.253Z,8.87
2023-04-21T00:07:30.699Z,9.40
2023-04-21T00:09:57.510Z,11.67
2023-04-21T00:12:24.251Z,9.10
2023-04-21T00:14:51.015Z,9.30
2023-04-21T00:17:17.822Z,9.50
2023-04-21T00:19:44.957Z,12.70
2023-04-21T00:22:14.995Z,12.83
2023-04-21T00:24:41.754Z,10.90
2023-04-21T00:27:08.465Z,12.57
2023-04-21T00:29:35.232Z,15.53
2023-04-21T00:32:03.816Z,15.93
2023-04-21T00:34:31.065Z,12.67
2023-04-21T00:36:57.789Z,13.37
2023-04-21T00:39:24.622Z,14.43
2023-04-21T00:41:51.554Z,12.40
2023-04-21T00:44:18.351Z,12.40
2023-04-21T00:46:45.211Z,12.87
2023-04-21T00:49:13.402Z,13.47
2023-04-21T00:51:40.810Z,10.40
2023-04-21T00:54:08.317Z,11.37
2023-04-21T00:56:36.106Z,9.73
2023-04-21T00:59:03.485Z,10.73
2023-04-21T01:01:37.313Z,9.50
2023-04-21T01:04:05.436Z,9.63
2023-04-21T01:06:34.279Z,9.23
2023-04-21T01:09:02.039Z,7.77
2023-04-21T01:11:28.908Z,7.30
2023-04-21T01:13:55.986Z,6.47
2023-04-21T01:16:24.120Z,5.67
2023-04-21T01:18:53.953Z,7.95
2023-04-21T01:21:21.992Z,7.50
2023-04-21T01:23:48.929Z,8.23
2023-04-21T01:26:21.822Z,8.10
2023-04-21T01:28:49.509Z,8.40
2023-04-21T01:31:17.236Z,6.93
2023-04-21T01:33:45.132Z,6.70
2023-04-21T01:36:12.132Z,7.77
2023-04-21T01:38:40.674Z,7.53
2023-04-21T01:41:26.631Z,7.23
2023-04-21T01:43:54.441Z,7.93
2023-04-21T01:46:21.418Z,6.10
2023-04-21T01:49:07.848Z,7.00
2023-04-21T01:51:53.681Z,7.40
2023-04-21T01:54:20.705Z,7.80
2023-04-21T01:56:47.565Z,8.27
2023-04-21T01:59:15.528Z,7.73
2023-04-21T02:01:42.338Z,7.57
2023-04-21T02:04:09.276Z,7.00
2023-04-21T02:06:36.225Z,6.20
2023-04-21T02:09:03.060Z,6.10
2023-04-21T02:11:31.509Z,6.30
2023-04-21T02:13:58.292Z,6.13
2023-04-21T02:16:26.445Z,5.83
2023-04-21T02:18:57.629Z,8.80
2023-04-21T02:21:24.930Z,7.33
2023-04-21T02:23:52.298Z,6.80
2023-04-21T02:26:19.679Z,7.70
2023-04-21T02:28:46.765Z,6.17
2023-04-21T02:31:16.194Z,5.67
2023-04-21T02:33:43.098Z,5.87
2023-04-21T02:38:58.038Z,7.33
2023-04-21T02:41:24.963Z,6.93
2023-04-21T02:44:10.179Z,6.03
2023-04-21T02:46:41.899Z,6.07
2023-04-21T02:49:09.975Z,7.30
2023-04-21T02:51:37.514Z,5.33
2023-04-21T02:54:22.902Z,4.83
2023-04-21T02:56:49.665Z,4.47
2023-04-21T02:59:16.793Z,5.63
2023-04-21T03:01:43.705Z,5.60
2023-04-21T03:04:10.503Z,6.67
2023-04-21T03:06:38.295Z,6.90
2023-04-21T03:09:05.981Z,4.97
2023-04-21T03:11:32.785Z,5.83
2023-04-21T03:13:59.635Z,5.87
2023-04-21T03:16:26.458Z,7.47
2023-04-21T03:18:53.260Z,5.23
2023-04-21T03:21:20.363Z,5.33
2023-04-21T03:23:47.302Z,4.83
2023-04-21T03:26:14.113Z,6.77
2023-04-21T03:28:59.402Z,5.23
2023-04-21T03:31:26.274Z,6.67
2023-04-21T03:33:53.211Z,4.90
2023-04-21T03:36:20.593Z,5.27
2023-04-21T03:38:47.692Z,5.93
2023-04-21T03:41:14.550Z,4.80
2023-04-21T03:43:59.973Z,4.27
2023-04-21T03:46:26.906Z,4.13
2023-04-21T03:48:53.716Z,4.90
2023-04-21T03:51:20.480Z,5.57
2023-04-21T03:53:47.213Z,5.33
2023-04-21T03:56:13.960Z,4.27
2023-04-21T03:58:40.972Z,5.03
2023-04-21T04:01:08.056Z,5.07
2023-04-21T04:03:35.086Z,4.40
2023-04-21T04:06:04.160Z,5.10
2023-04-21T04:08:31.371Z,5.03
2023-04-21T04:10:58.512Z,4.40
2023-04-21T04:13:26.622Z,5.03
2023-04-21T04:15:53.594Z,5.17
2023-04-21T04:18:21.140Z,5.07
2023-04-21T04:20:47.973Z,5.10
2023-04-21T04:23:14.853Z,5.57
2023-04-21T04:25:42.815Z,5.63
2023-04-21T04:28:09.602Z,5.40
2023-04-21T04:30:55.422Z,5.37
2023-04-21T04:33:22.339Z,5.40
2023-04-21T04:35:49.153Z,4.93
2023-04-21T04:38:15.983Z,5.37
2023-04-21T04:40:42.744Z,5.20
2023-04-21T04:43:10.698Z,5.40
2023-04-21T04:45:38.921Z,4.83
2023-04-21T04:48:06.329Z,5.50
2023-04-21T04:50:33.028Z,5.23
2023-04-21T04:52:59.855Z,4.93
2023-04-21T04:55:26.721Z,5.40
2023-04-21T04:57:53.517Z,4.70
2023-04-21T05:00:20.530Z,5.53
2023-04-21T05:02:47.572Z,5.50
2023-04-21T05:05:14.626Z,4.70
2023-04-21T05:07:41.440Z,4.70
2023-04-21T05:10:08.486Z,4.90
2023-04-21T05:12:35.491Z,4.67
2023-04-21T05:15:02.415Z,4.30
2023-04-21T05:17:31.211Z,4.83
2023-04-21T05:19:58.172Z,4.70
2023-04-21T05:22:25.889Z,4.17
2023-04-21T05:24:53.343Z,4.27
2023-04-21T05:27:20.358Z,4.37
2023-04-21T05:29:47.177Z,4.33
2023-04-21T05:32:14.448Z,4.57
2023-04-21T05:34:41.253Z,4.43
2023-04-21T05:37:10.217Z,4.70
2023-04-21T05:39:36.958Z,4.50
2023-04-21T05:42:03.943Z,4.63
2023-04-21T05:44:30.799Z,4.87
2023-04-21T05:46:57.645Z,4.53
2023-04-21T05:49:24.458Z,4.80
2023-04-21T05:51:51.188Z,4.10
2023-04-21T05:54:18.405Z,4.57
2023-04-21T05:57:04.045Z,4.67
2023-04-21T05:59:30.973Z,4.53
2023-04-21T06:01:57.756Z,3.97
2023-04-21T06:04:24.737Z,5.00
2023-04-21T06:06:51.951Z,3.83
2023-04-21T06:09:18.756Z,4.57
2023-04-21T06:11:45.593Z,3.57
2023-04-21T06:14:12.425Z,4.27
2023-04-21T06:16:39.413Z,3.80
2023-04-21T06:19:06.261Z,4.00
2023-04-21T06:21:33.334Z,4.20
2023-04-21T06:24:00.102Z,3.43
2023-04-21T06:26:26.911Z,3.40
2023-04-21T06:28:53.771Z,4.27
2023-04-21T06:31:20.605Z,3.83
2023-04-21T06:33:47.499Z,3.60
2023-04-21T06:36:33.140Z,2.93
2023-04-21T06:39:00.159Z,3.27
2023-04-21T06:41:26.980Z,3.57
2023-04-21T06:43:53.778Z,3.43
2023-04-21T06:46:20.582Z,3.60
2023-04-21T06:48:47.536Z,3.17
2023-04-21T06:51:14.909Z,3.50
2023-04-21T06:53:41.726Z,3.67
2023-04-21T06:56:08.523Z,3.37
2023-04-21T06:58:35.402Z,2.73
2023-04-21T07:01:02.263Z,3.10
2023-04-21T07:03:29.095Z,3.07
2023-04-21T07:05:55.865Z,2.47
2023-04-21T07:08:22.675Z,3.00
2023-04-21T07:10:49.445Z,2.50
2023-04-21T07:13:17.785Z,3.07
2023-04-21T07:15:44.728Z,3.53
2023-04-21T07:18:11.480Z,3.10
2023-04-21T07:20:38.603Z,3.17
2023-04-21T07:23:05.560Z,3.13
2023-04-21T07:25:32.443Z,2.77
2023-04-21T07:27:59.217Z,3.73
2023-04-21T07:30:26.189Z,2.87
2023-04-21T07:32:53.117Z,2.73
2023-04-21T07:35:19.953Z,2.80
2023-04-21T07:37:46.734Z,2.60
2023-04-21T07:40:14.004Z,3.27
2023-04-21T07:42:40.919Z,2.67
2023-04-21T07:45:08.518Z,2.23
2023-04-21T07:47:35.574Z,2.83
2023-04-21T07:50:02.425Z,2.87
2023-04-21T07:52:29.360Z,3.23
2023-04-21T07:55:14.890Z,2.70
2023-04-21T07:57:41.846Z,2.73
2023-04-21T08:00:10.489Z,2.40
2023-04-21T08:02:40.555Z,3.03
2023-04-21T08:05:08.030Z,2.65
2023-04-21T08:07:35.010Z,2.53
2023-04-21T08:10:02.700Z,2.80
2023-04-21T08:12:48.389Z,2.08
2023-04-21T08:15:15.672Z,2.15
2023-04-21T08:17:42.683Z,2.77
2023-04-21T08:20:10.908Z,1.95
2023-04-21T08:22:37.895Z,1.55
2023-04-21T08:25:06.163Z,1.65
2023-04-21T08:30:18.867Z,0.90
2023-04-21T08:32:45.746Z,0.80
2023-04-21T08:35:12.701Z,0.57
2023-04-21T08:37:40.074Z,0.63
2023-04-21T08:40:07.472Z,0.70
2023-04-21T08:42:35.040Z,0.93
2023-04-21T08:45:01.907Z,0.50
2023-04-21T08:47:29.818Z,0.40
2023-04-21T08:49:57.026Z,0.80
2023-04-21T08:52:23.849Z,1.00
2023-04-21T08:54:53.063Z,0.55
2023-04-21T08:57:19.869Z,0.57
2023-04-21T09:00:07.917Z,0.65
2023-04-21T09:03:00.688Z,0.50
2023-04-21T09:05:33.983Z,0.75
2023-04-21T09:08:09.728Z,0.70
2023-04-21T09:10:49.779Z,0.70
2023-04-21T09:13:18.306Z,0.57
2023-04-21T09:15:52.341Z,0.52
2023-04-21T09:18:24.472Z,0.60
2023-04-21T09:21:04.638Z,0.55
2023-04-21T09:23:31.485Z,0.88
2023-04-21T09:25:58.223Z,0.60
2023-04-21T09:28:32.812Z,0.95
2023-04-21T09:30:59.583Z,0.60
2023-04-21T09:33:32.416Z,0.50
2023-04-21T09:36:05.312Z,0.50
2023-04-21T09:38:32.827Z,0.20
2023-04-21T09:41:00.184Z,0.40
2023-04-21T09:43:26.995Z,0.30
2023-04-21T09:45:56.084Z,0.75
2023-04-21T09:48:26.086Z,0.40
2023-04-21T09:51:24.909Z,0.40
2023-04-21T09:53:42.726Z,0.70
2023-04-21T09:56:13.832Z,0.63
2023-04-21T09:58:52.497Z,0.50
2023-04-21T10:01:20.108Z,0.47
2023-04-21T10:03:49.566Z,0.40
2023-04-21T10:06:16.738Z,0.30
2023-04-21T10:09:04.223Z,0.50
2023-04-21T10:11:32.828Z,1.02
2023-04-21T10:14:18.824Z,0.43
2023-04-21T10:16:56.946Z,0.40
2023-04-21T10:19:59.455Z,0.32
2023-04-21T10:22:34.132Z,0.35
2023-04-21T10:25:03.143Z,0.43
2023-04-21T10:27:35.881Z,0.50
2023-04-21T10:30:19.391Z,0.70
2023-04-21T10:33:05.062Z,0.40
2023-04-21T10:36:02.168Z,0.40
2023-04-21T10:38:42.128Z,0.30
2023-04-21T10:41:32.918Z,0.50
2023-04-21T10:44:00.104Z,0.60
2023-04-21T10:46:55.817Z,0.40
2023-04-21T10:49:32.652Z,0.50
2023-04-21T10:51:59.569Z,0.25
2023-04-21T10:54:27.113Z,0.30
2023-04-21T10:56:55.136Z,0.30
2023-04-21T10:59:22.987Z,0.50
2023-04-21T11:01:49.923Z,0.20
2023-04-21T11:04:21.485Z,0.40
2023-04-21T11:07:08.891Z,0.47
2023-04-21T11:09:36.892Z,0.60
2023-04-21T11:12:07.547Z,0.60
2023-04-21T11:14:37.129Z,0.40
2023-04-21T11:17:05.746Z,0.50
2023-04-21T11:19:32.721Z,0.40
2023-04-21T11:21:59.704Z,0.32
2023-04-21T11:24:26.608Z,0.30
2023-04-21T11:27:11.811Z,0.40
2023-04-21T11:29:38.908Z,0.40
2023-04-21T11:32:09.794Z,0.65
2023-04-21T11:34:40.090Z,0.63
2023-04-21T11:37:08.880Z,0.55
2023-04-21T11:39:58.855Z,0.40
2023-04-21T11:42:25.799Z,0.52
2023-04-21T11:44:55.717Z,0.60
2023-04-21T11:47:27.706Z,0.60
2023-04-21T11:49:59.617Z,0.77
2023-04-21T11:52:33.337Z,0.38
2023-04-21T11:55:12.182Z,0.30
2023-04-21T11:57:40.884Z,0.40
2023-04-21T12:00:14.050Z,0.40
2023-04-21T12:02:41.155Z,0.40
2023-04-21T12:05:08.508Z,0.90
2023-04-21T12:07:55.982Z,0.50
2023-04-21T12:10:22.786Z,0.70
2023-04-21T12:12:49.557Z,0.40
2023-04-21T12:15:39.891Z,0.40
2023-04-21T12:18:13.894Z,0.50
2023-04-21T12:21:01.529Z,0.30
2023-04-21T12:23:28.325Z,0.50
2023-04-21T12:25:55.174Z,0.40
2023-04-21T12:28:21.950Z,0.50
2023-04-21T12:30:48.714Z,0.40
2023-04-21T12:33:15.645Z,0.47
2023-04-21T12:36:00.899Z,0.40
2023-04-21T12:38:27.814Z,0.50
2023-04-21T12:40:54.530Z,0.60
2023-04-21T12:43:21.298Z,0.50
2023-04-21T12:45:48.984Z,0.50
2023-04-21T12:48:15.954Z,0.45
2023-04-21T12:51:01.811Z,0.60
2023-04-21T12:53:30.581Z,0.63
2023-04-21T12:56:04.597Z,0.30
2023-04-21T12:58:32.336Z,0.77
2023-04-21T13:00:59.208Z,0.43
2023-04-21T13:03:26.268Z,0.60
2023-04-21T13:05:53.251Z,0.43
2023-04-21T13:08:21.634Z,0.70
2023-04-21T13:10:48.527Z,0.40
2023-04-21T13:13:15.366Z,0.30
2023-04-21T13:15:42.166Z,0.40
2023-04-21T13:18:27.223Z,0.50
2023-04-21T13:20:54.047Z,0.47
2023-04-21T13:23:39.564Z,0.50
2023-04-21T13:26:06.899Z,1.10
2023-04-21T13:28:33.799Z,0.40
2023-04-21T13:31:01.627Z,0.60
2023-04-21T13:33:28.879Z,0.57
2023-04-21T13:35:55.839Z,0.77
2023-04-21T13:38:22.710Z,0.50
2023-04-21T13:40:50.942Z,0.52
2023-04-21T13:43:17.760Z,0.57
2023-04-21T13:45:46.091Z,0.93
2023-04-21T13:48:12.996Z,0.70
2023-04-21T13:50:39.867Z,0.68
2023-04-21T13:53:07.054Z,0.70
2023-04-21T13:55:54.709Z,0.75
2023-04-21T13:58:40.346Z,0.55
2023-04-21T14:01:07.196Z,0.50
2023-04-21T14:03:54.079Z,0.43
2023-04-21T14:06:21.088Z,0.50
2023-04-21T14:08:47.926Z,0.50
2023-04-21T14:11:14.774Z,0.43
2023-04-21T14:13:48.649Z,0.60
2023-04-21T14:16:26.640Z,0.65
2023-04-21T14:18:53.478Z,0.43
2023-04-21T14:21:20.284Z,0.75
2023-04-21T14:23:47.166Z,0.80
2023-04-21T14:26:14.069Z,1.00
2023-04-21T14:28:40.871Z,0.90
2023-04-21T14:31:07.649Z,0.90
2023-04-21T14:33:35.284Z,1.20
2023-04-21T14:36:02.732Z,1.10
2023-04-21T14:38:30.815Z,0.82
2023-04-21T14:40:57.754Z,1.17
2023-04-21T14:43:24.691Z,1.00
2023-04-21T14:45:51.655Z,1.20
2023-04-21T14:48:18.702Z,1.30
2023-04-21T14:50:45.703Z,1.13
2023-04-21T14:53:12.509Z,0.98
2023-04-21T14:55:39.435Z,0.95
2023-04-21T14:58:06.305Z,1.05
2023-04-21T15:00:34.773Z,1.17
2023-04-21T15:03:20.197Z,1.30
2023-04-21T15:05:47.256Z,0.98
2023-04-21T15:08:18.103Z,1.50
2023-04-21T15:10:45.558Z,1.90
2023-04-21T15:13:12.375Z,3.20
2023-04-21T15:15:40.583Z,3.40
2023-04-21T15:18:10.385Z,2.53
2023-04-21T15:20:44.478Z,2.78
2023-04-21T15:23:13.183Z,3.42
2023-04-21T15:25:40.405Z,2.35
2023-04-21T15:28:07.735Z,2.40
2023-04-21T15:30:34.587Z,3.28
2023-04-21T15:33:01.607Z,2.15
2023-04-21T15:35:28.474Z,3.33
2023-04-21T15:37:55.975Z,3.40
2023-04-21T15:40:22.899Z,4.00
2023-04-21T15:42:49.995Z,3.58
2023-04-21T15:45:18.195Z,4.15
2023-04-21T15:48:03.791Z,4.45
2023-04-21T15:50:31.563Z,3.03
2023-04-21T15:52:58.443Z,2.75
2023-04-21T15:55:27.867Z,2.58
2023-04-21T15:57:54.743Z,2.83
2023-04-21T16:00:21.829Z,3.47
2023-04-21T16:02:49.609Z,2.65
2023-04-21T16:05:20.199Z,3.70
2023-04-21T16:08:05.739Z,2.75
2023-04-21T16:13:19.102Z,3.17
2023-04-21T16:15:46.116Z,2.70
2023-04-21T16:18:13.225Z,2.72
2023-04-21T16:20:40.203Z,3.38
2023-04-21T16:23:07.160Z,2.70
2023-04-21T16:25:53.333Z,2.40
2023-04-21T16:28:20.326Z,3.28
2023-04-21T16:30:48.367Z,2.40
2023-04-21T16:33:34.041Z,3.72
2023-04-21T16:36:00.928Z,2.95
2023-04-21T16:38:28.215Z,3.53
2023-04-21T16:40:54.985Z,2.45
2023-04-21T16:43:40.667Z,2.95
2023-04-21T16:46:07.503Z,2.45
2023-04-21T16:48:34.385Z,3.38
2023-04-21T16:51:01.293Z,2.05
2023-04-21T16:53:28.158Z,2.03
2023-04-21T16:55:54.950Z,3.13
2023-04-21T16:58:22.221Z,2.70
2023-04-21T17:00:49.086Z,2.55
2023-04-21T17:03:16.031Z,2.33
2023-04-21T17:05:43.166Z,2.00
2023-04-21T17:08:09.937Z,2.47
2023-04-21T17:10:36.935Z,2.38
2023-04-21T17:13:04.541Z,3.55
2023-04-21T17:15:31.609Z,2.58
2023-04-21T17:17:58.555Z,3.58
2023-04-21T17:20:25.529Z,3.15
2023-04-21T17:22:52.494Z,3.08
2023-04-21T17:25:19.271Z,2.85
2023-04-21T17:27:46.437Z,3.28
2023-04-21T17:30:13.638Z,3.13
2023-04-21T17:32:41.078Z,2.30
2023-04-21T17:35:08.207Z,3.08
2023-04-21T17:37:53.899Z,2.80
2023-04-21T17:40:39.218Z,2.63
2023-04-21T17:43:06.042Z,2.00
2023-04-21T17:45:32.861Z,2.28
2023-04-21T17:47:59.792Z,2.63
2023-04-21T17:50:27.770Z,2.63
2023-04-21T17:52:54.572Z,2.30
2023-04-21T17:55:21.636Z,2.10
2023-04-21T17:57:48.571Z,2.20
2023-04-21T18:00:17.634Z,2.10
2023-04-21T18:02:44.629Z,2.33
2023-04-21T18:05:13.700Z,2.70
2023-04-21T18:07:41.534Z,1.98
2023-04-21T18:10:08.935Z,2.40
2023-04-21T18:12:35.734Z,2.25
2023-04-21T18:15:02.491Z,2.60
2023-04-21T18:17:47.618Z,1.77
2023-04-21T18:20:15.246Z,2.72
2023-04-21T18:22:43.769Z,2.58
2023-04-21T18:25:14.290Z,2.72
2023-04-21T18:27:41.273Z,2.33
2023-04-21T18:30:09.238Z,3.25
2023-04-21T18:32:36.660Z,2.40
2023-04-21T18:35:05.103Z,2.33
2023-04-21T18:37:31.912Z,2.78
2023-04-21T18:39:58.770Z,2.60
2023-04-21T18:42:26.511Z,2.72
2023-04-21T18:44:56.327Z,4.20
2023-04-21T18:50:09.547Z,3.10
2023-04-21T18:52:36.614Z,4.05
2023-04-21T18:55:03.692Z,5.72
2023-04-21T18:57:30.562Z,4.60
2023-04-21T18:59:57.298Z,6.03
2023-04-21T19:02:24.138Z,6.75
2023-04-21T19:04:52.605Z,6.00
2023-04-21T19:07:19.510Z,5.43
2023-04-21T19:09:46.310Z,5.22
2023-04-21T19:12:14.425Z,4.57
2023-04-21T19:14:47.258Z,8.07
2023-04-21T19:17:15.179Z,6.90
2023-04-21T19:19:42.925Z,6.05
2023-04-21T19:22:09.769Z,5.35
2023-04-21T19:24:36.869Z,4.05
2023-04-21T19:27:05.518Z,3.90
2023-04-21T19:29:32.840Z,5.22
2023-04-21T19:31:59.781Z,3.72
2023-04-21T19:34:26.925Z,3.97
2023-04-21T19:37:12.596Z,4.45
2023-04-21T19:39:39.376Z,4.95
2023-04-21T19:42:06.126Z,3.92
2023-04-21T19:44:32.929Z,3.92
2023-04-21T19:47:18.672Z,3.53
2023-04-21T19:49:45.573Z,3.45
2023-04-21T19:52:12.337Z,3.85
2023-04-21T19:54:39.418Z,3.55
2023-04-21T19:57:06.997Z,3.97
2023-04-21T19:59:34.880Z,3.38
2023-04-21T20:02:01.978Z,4.00
2023-04-21T20:04:29.163Z,4.00
2023-04-21T20:06:56.225Z,3.47
2023-04-21T20:09:23.109Z,3.58
2023-04-21T20:11:50.040Z,3.70
2023-04-21T20:14:18.157Z,3.45
2023-04-21T20:16:46.290Z,5.05
2023-04-21T20:19:31.781Z,3.90
2023-04-21T20:21:58.856Z,4.18
2023-04-21T20:24:25.639Z,3.72
2023-04-21T20:27:10.848Z,4.40
2023-04-21T20:29:37.947Z,4.00
2023-04-21T20:32:05.010Z,3.75
2023-04-21T20:34:31.931Z,3.75
2023-04-21T20:36:59.481Z,3.30
2023-04-21T20:39:46.956Z,3.55
2023-04-21T20:42:14.761Z,3.53
2023-04-21T20:44:43.350Z,5.07
2023-04-21T20:47:11.277Z,4.95
2023-04-21T20:49:57.477Z,4.37
2023-04-21T20:52:24.829Z,4.70
2023-04-21T20:54:51.982Z,5.43
2023-04-21T20:57:19.034Z,5.40
2023-04-21T20:59:46.029Z,4.93
2023-04-21T21:02:13.105Z,5.15
2023-04-21T21:04:40.276Z,5.28
2023-04-21T21:07:07.302Z,5.53
2023-04-21T21:09:34.203Z,4.53
2023-04-21T21:12:02.507Z,4.68
2023-04-21T21:14:29.416Z,6.63
2023-04-21T21:17:16.644Z,6.53
2023-04-21T21:19:43.913Z,5.97
2023-04-21T21:22:11.360Z,6.27
2023-04-21T21:27:23.701Z,5.65
2023-04-21T21:29:50.645Z,5.67
2023-04-21T21:32:36.952Z,4.40
2023-04-21T21:35:22.328Z,5.22
2023-04-21T21:37:49.328Z,5.40
2023-04-21T21:40:16.380Z,5.17
2023-04-21T21:42:43.408Z,5.18
2023-04-21T21:45:11.417Z,5.73
2023-04-21T21:47:41.624Z,5.40
2023-04-21T21:50:11.461Z,5.50
2023-04-21T21:52:38.546Z,4.90
2023-04-21T21:55:06.158Z,5.50
2023-04-21T21:57:33.385Z,4.80
2023-04-21T22:00:20.726Z,5.53
2023-04-21T22:02:48.041Z,5.33
2023-04-21T22:05:15.054Z,4.93
2023-04-21T22:10:27.252Z,6.37
2023-04-21T22:12:57.296Z,5.20
2023-04-21T22:15:24.154Z,5.90
2023-04-21T22:17:50.972Z,5.47
2023-04-21T22:20:17.999Z,6.17
2023-04-21T22:22:44.989Z,4.90
2023-04-21T22:25:11.820Z,4.97
2023-04-21T22:27:39.120Z,5.60
2023-04-21T22:30:06.724Z,5.83
2023-04-21T22:32:33.818Z,6.93
2023-04-21T22:35:01.437Z,7.03
2023-04-21T22:37:28.499Z,6.70
2023-04-21T22:39:57.496Z,6.33
2023-04-21T22:42:24.360Z,7.73
2023-04-21T22:44:51.266Z,6.83
2023-04-21T22:50:02.074Z,7.03
2023-04-21T22:52:28.907Z,6.37
2023-04-21T22:54:55.745Z,7.87
2023-04-21T22:57:22.909Z,8.07
2023-04-21T22:59:49.683Z,7.40
2023-04-21T23:02:16.761Z,8.27
2023-04-21T23:04:43.926Z,7.43
2023-04-21T23:07:10.718Z,7.47
2023-04-21T23:09:37.945Z,6.80
2023-04-21T23:12:06.249Z,7.30
2023-04-21T23:14:33.162Z,7.90
2023-04-21T23:17:00.286Z,6.57
2023-04-21T23:19:27.200Z,6.87
2023-04-21T23:21:54.177Z,5.73
2023-04-21T23:24:20.929Z,6.80
2023-04-21T23:26:47.860Z,6.63
2023-04-21T23:29:14.647Z,5.47
2023-04-21T23:31:41.600Z,6.20
2023-04-21T23:34:27.494Z,7.47
2023-04-21T23:36:54.244Z,6.33
2023-04-21T23:39:22.466Z,5.50
2023-04-21T23:41:49.760Z,6.50
2023-04-21T23:44:16.665Z,6.70
2023-04-21T23:46:43.486Z,7.23
2023-04-21T23:49:10.269Z,8.20
2023-04-21T23:51:37.268Z,8.47
2023-04-21T23:54:04.109Z,6.50
2023-04-21T23:56:31.313Z,7.07
2023-04-21T23:58:58.454Z,7.53
